Hovedside
METAR-TAF:

METAR-TAF

Lufthavner :

Sarh, Tsjad

breddegrad: 09-09N, lengdegrad: 018-23E, høyde over havet: 365 m

Gjeldene værobservasjon

Denne rapporten ble laget for 44 minutter siden, klokken 16:00 UTC
Vind 2 kt fra Vest
Temperatur 26°C
Luftfuktighet 84%
Trykk 1011 hPa
Sikt 10 km eller mer
Få skyer i en høyde av 2000 ft
Få skyer i en høyde av 5000 ft, Bygeskyer.

METAR: FTTA 171600Z 28002KT 9999 FEW020 FEW050CB 26/23 Q1011 RETS

Tid: 17:44 (16:44 UTC)


TAF: fraværende

Værobservasjoner og værvarsel for over 4000 flyplasser (METAR- og TAF-rapporter).

Tilgjengelige stasjoner er representert av de røde og gule prikkene på kartet.

Hold musepekeren over prikken for å se navnet på stasjonen.

Klikk så for å se værobservasjoner og -varsler.

For å forandre kartet kan du klikke på den grønne knappen med svart kryss for å zoome inn, på den grønne knappen med strek for å zoome ut, eller på de grønne pilene for å se tilstøtende kart.


METAR-TAF: